Harbour Grace, Canada
Current Conditions -  °F | °C
As of 12:00 PM on Saturday 22 Nov 2014 (Local Time) from CYYT Reporting Station
Broken Clouds Broken Clouds  
Wind Chill:   Ceiling: 4600
Heat Index: 25°   Visibility: 15mi
Dew Point:   Wind: 35mph
Humidity: 50%   Direction: 290°WNW
Pressure: 29.61"   Gusts: 45mph
Location:  47.68°N, 53.25°W
Report Text: CYYT 221500Z 29030G39KT 15SM BKN046 M04/M13 A2961 RMK SC5 SLP033
Loading
Personal Weather Stations






























Interactive Weather Map New forecast layout! Learn more

10-Day Weather Forecast

Advertisements
Track Severe Weather on mobile